Time;durP1;ratioP1;P1;durP2;ratioP2;P2;SDS_P1;SDS_P2;PMS_P1;PMS_P2;Temp;Humidity;BMP_temperature;BMP_pressure;BME280_temperature;BME280_humidity;BME280_pressure;Samples;Min_cycle;Max_cycle;Signal;HPM_P1;HPM_P2
2021/12/03 00:00:48;;;;;;;29.98;23.55;;;0.80;99.90;;;;;;5022827;28;20029;-72
2021/12/03 00:03:14;;;;;;;33.08;25.65;;;0.80;99.90;;;;;;5026008;28;20018;-73
2021/12/03 00:05:40;;;;;;;33.10;25.23;;;0.80;99.90;;;;;;5031458;28;20025;-72
2021/12/03 00:08:07;;;;;;;34.70;26.45;;;0.80;99.90;;;;;;5022133;28;20022;-72
2021/12/03 00:10:34;;;;;;;35.97;27.25;;;0.80;99.90;;;;;;5031127;28;20030;-72
2021/12/03 00:13:00;;;;;;;32.17;24.90;;;0.80;99.90;;;;;;5019553;28;20025;-71
2021/12/03 00:15:27;;;;;;;36.35;25.75;;;0.80;99.90;;;;;;5029996;28;20026;-71
2021/12/03 00:17:53;;;;;;;33.22;24.85;;;0.80;99.90;;;;;;5025879;28;20113;-72
2021/12/03 00:20:20;;;;;;;31.58;24.63;;;0.80;99.90;;;;;;5026509;28;20506;-73
2021/12/03 00:22:49;;;;;;;31.42;24.95;;;0.80;99.90;;;;;;5026527;28;20028;-71
2021/12/03 00:25:15;;;;;;;30.63;24.33;;;0.80;99.90;;;;;;5026358;28;20034;-72
2021/12/03 00:27:41;;;;;;;32.85;24.40;;;0.80;99.90;;;;;;5029611;28;20022;-70
2021/12/03 00:30:10;;;;;;;29.27;23.58;;;0.80;99.90;;;;;;5026226;28;20053;-71
2021/12/03 00:32:36;;;;;;;31.00;24.85;;;0.80;99.90;;;;;;5026302;28;20084;-71
2021/12/03 00:35:03;;;;;;;29.30;21.77;;;0.80;99.90;;;;;;5025938;28;20029;-71
2021/12/03 00:37:29;;;;;;;29.63;22.98;;;0.80;99.90;;;;;;5026969;28;20037;-72
2021/12/03 00:39:54;;;;;;;25.90;20.20;;;0.80;99.90;;;;;;5022790;28;20040;-71
2021/12/03 00:42:20;;;;;;;26.95;20.73;;;0.80;99.90;;;;;;5021455;28;20034;-72
2021/12/03 00:44:51;;;;;;;26.02;20.17;;;0.80;99.90;;;;;;5030582;28;20025;-71
2021/12/03 00:47:18;;;;;;;25.30;20.15;;;0.80;99.90;;;;;;5021164;28;20021;-71
2021/12/03 00:49:43;;;;;;;24.40;20.45;;;0.80;99.90;;;;;;5032943;28;20033;-73
2021/12/03 00:52:09;;;;;;;23.55;19.42;;;0.80;99.90;;;;;;5027381;28;20021;-74
2021/12/03 00:54:35;;;;;;;27.55;22.27;;;0.80;99.90;;;;;;5024375;28;20068;-71
2021/12/03 00:57:01;;;;;;;25.25;20.00;;;0.80;99.90;;;;;;5030256;28;20372;-72
2021/12/03 00:59:26;;;;;;;28.10;21.45;;;0.70;99.90;;;;;;5029267;28;20029;-72
2021/12/03 01:01:52;;;;;;;55.70;49.70;;;0.80;99.90;;;;;;5023146;28;20025;-70
2021/12/03 01:04:18;;;;;;;35.55;31.80;;;0.60;99.90;;;;;;5025536;28;20024;-71
2021/12/03 01:06:43;;;;;;;30.50;25.48;;;0.60;99.90;;;;;;5024931;28;20030;-71
2021/12/03 01:09:09;;;;;;;29.00;22.48;;;0.60;99.90;;;;;;5024349;28;20076;-71
2021/12/03 01:11:34;;;;;;;27.90;23.00;;;0.40;99.90;;;;;;5025650;28;20408;-70
2021/12/03 01:14:01;;;;;;;28.67;23.23;;;0.50;99.90;;;;;;5029451;28;20029;-72
2021/12/03 01:16:28;;;;;;;30.38;22.95;;;0.40;99.90;;;;;;5020250;28;20396;-71
2021/12/03 01:18:55;;;;;;;27.98;21.80;;;0.40;99.90;;;;;;5030283;28;20112;-71
2021/12/03 01:21:22;;;;;;;31.92;23.83;;;0.40;99.90;;;;;;5020545;28;20018;-70
2021/12/03 01:23:48;;;;;;;32.22;24.23;;;0.30;99.90;;;;;;5030693;28;20114;-70
2021/12/03 01:26:15;;;;;;;31.40;24.17;;;0.30;99.90;;;;;;5032119;28;20440;-71
2021/12/03 01:28:41;;;;;;;30.90;24.38;;;0.20;99.90;;;;;;5027910;28;20506;-72
2021/12/03 01:31:07;;;;;;;31.63;23.50;;;0.30;99.90;;;;;;5026292;28;20442;-71
2021/12/03 01:33:33;;;;;;;30.65;23.45;;;0.30;99.90;;;;;;5033455;28;20048;-71
2021/12/03 01:35:58;;;;;;;33.22;23.70;;;0.30;99.90;;;;;;5023662;28;20052;-72
2021/12/03 01:38:24;;;;;;;32.67;24.45;;;0.30;99.90;;;;;;5025127;28;20387;-72
2021/12/03 01:40:50;;;;;;;32.05;23.88;;;0.20;99.90;;;;;;5025057;28;20380;-71
2021/12/03 01:43:22;;;;;;;35.50;25.75;;;0.20;99.90;;;;;;5023602;28;20479;-72
2021/12/03 01:45:51;;;;;;;34.53;25.30;;;0.30;99.90;;;;;;5023587;28;20030;-72
2021/12/03 01:48:17;;;;;;;32.00;23.63;;;0.20;99.90;;;;;;5033268;28;20026;-71
2021/12/03 01:50:44;;;;;;;33.80;23.95;;;0.10;99.90;;;;;;5027786;28;20041;-70
2021/12/03 01:53:12;;;;;;;36.33;25.23;;;0.10;99.90;;;;;;5028105;28;20030;-70
2021/12/03 01:55:38;;;;;;;35.28;25.38;;;0.10;99.90;;;;;;5018554;28;20036;-72
2021/12/03 01:58:05;;;;;;;45.05;29.10;;;0.10;99.90;;;;;;5026257;28;20029;-70
2021/12/03 02:00:34;;;;;;;43.03;29.38;;;0.10;99.90;;;;;;5024974;28;20108;-70
2021/12/03 02:03:00;;;;;;;49.63;31.60;;;0.00;99.90;;;;;;5016876;28;20045;-70
2021/12/03 02:05:26;;;;;;;47.13;29.77;;;-0.10;99.90;;;;;;5023820;28;20425;-70
2021/12/03 02:07:53;;;;;;;65.82;35.10;;;-0.10;99.90;;;;;;5025570;28;20026;-70
2021/12/03 02:10:21;;;;;;;47.05;29.38;;;-0.10;99.90;;;;;;5026953;28;20033;-70
2021/12/03 02:12:46;;;;;;;36.72;26.25;;;0.00;99.90;;;;;;5019046;28;20061;-70
2021/12/03 02:15:12;;;;;;;49.00;31.10;;;0.20;99.90;;;;;;5025748;28;20068;-70
2021/12/03 02:17:38;;;;;;;49.60;31.85;;;0.00;99.90;;;;;;5015525;28;20040;-71
2021/12/03 02:20:07;;;;;;;53.67;33.45;;;0.00;99.90;;;;;;5025042;28;20028;-71
2021/12/03 02:22:32;;;;;;;41.13;28.40;;;-0.10;99.90;;;;;;5024210;28;20013;-70
2021/12/03 02:24:58;;;;;;;51.65;31.92;;;-0.10;99.90;;;;;;5020753;28;20024;-70
2021/12/03 02:27:24;;;;;;;44.00;29.75;;;-0.20;99.90;;;;;;5021001;28;20499;-72
2021/12/03 02:29:49;;;;;;;43.58;30.13;;;-0.10;99.90;;;;;;5023866;28;20032;-70
2021/12/03 02:32:15;;;;;;;45.92;31.77;;;-0.10;99.90;;;;;;5026818;28;20093;-70
2021/12/03 02:34:41;;;;;;;48.22;31.65;;;-0.20;99.90;;;;;;5021305;28;20439;-69
2021/12/03 02:37:06;;;;;;;42.22;29.70;;;-0.30;99.90;;;;;;5027700;28;20105;-70
2021/12/03 02:39:32;;;;;;;39.20;27.08;;;-0.30;99.90;;;;;;5020532;28;20072;-71
2021/12/03 02:41:58;;;;;;;45.65;30.83;;;-0.10;99.90;;;;;;5028767;28;20026;-69
2021/12/03 02:44:24;;;;;;;42.55;29.52;;;-0.10;99.90;;;;;;5026991;28;20026;-70
2021/12/03 02:46:50;;;;;;;38.22;28.33;;;-0.10;99.90;;;;;;5021671;28;20383;-70
2021/12/03 02:49:15;;;;;;;44.42;30.23;;;-0.10;99.90;;;;;;5026185;28;20025;-70
2021/12/03 02:51:42;;;;;;;39.40;28.67;;;0.00;99.90;;;;;;5030879;28;20050;-70
2021/12/03 02:54:09;;;;;;;41.05;29.17;;;-0.10;99.90;;;;;;5024858;28;20068;-71
2021/12/03 02:56:35;;;;;;;35.80;27.67;;;0.00;99.90;;;;;;5023574;28;20036;-71
2021/12/03 02:59:00;;;;;;;41.85;29.20;;;0.00;99.90;;;;;;5024857;28;20017;-73
2021/12/03 03:01:26;;;;;;;38.50;27.77;;;0.10;99.90;;;;;;5017851;28;20018;-72
2021/12/03 03:03:52;;;;;;;39.78;28.35;;;0.10;99.90;;;;;;5018115;28;20022;-72
2021/12/03 03:06:17;;;;;;;47.65;31.25;;;0.10;99.90;;;;;;5024119;28;20104;-71
2021/12/03 03:08:44;;;;;;;43.28;30.55;;;0.10;99.90;;;;;;5021250;28;20026;-71
2021/12/03 03:11:10;;;;;;;39.03;27.35;;;0.10;99.90;;;;;;5025318;28;20018;-71
2021/12/03 03:13:37;;;;;;;45.65;30.95;;;0.10;99.90;;;;;;5020204;28;20109;-71
2021/12/03 03:16:04;;;;;;;45.00;30.10;;;0.10;99.90;;;;;;5024601;28;20021;-71
2021/12/03 03:18:30;;;;;;;35.05;25.95;;;0.10;99.90;;;;;;5031731;28;20419;-72
2021/12/03 03:20:59;;;;;;;43.67;30.20;;;0.20;99.90;;;;;;5015498;28;20022;-72
2021/12/03 03:23:24;;;;;;;36.05;27.58;;;0.20;99.90;;;;;;5020218;28;20053;-73
2021/12/03 03:25:50;;;;;;;43.33;30.05;;;0.30;99.90;;;;;;5018255;28;20061;-72
2021/12/03 03:28:17;;;;;;;35.67;25.75;;;0.30;99.90;;;;;;5020770;28;20026;-73
2021/12/03 03:30:45;;;;;;;40.40;29.58;;;0.30;99.90;;;;;;5013726;28;20018;-72
2021/12/03 03:33:12;;;;;;;36.75;27.20;;;0.30;99.90;;;;;;5022871;28;20030;-72
2021/12/03 03:35:38;;;;;;;34.58;26.38;;;0.40;99.90;;;;;;5024653;28;20021;-74
2021/12/03 03:38:04;;;;;;;42.58;28.95;;;0.40;99.90;;;;;;5011870;28;20029;-74
2021/12/03 03:40:30;;;;;;;39.25;26.67;;;0.40;99.90;;;;;;5029247;28;20096;-73
2021/12/03 03:43:00;;;;;;;37.88;27.13;;;0.40;99.90;;;;;;5024898;28;20111;-74
2021/12/03 03:45:26;;;;;;;35.63;26.70;;;0.50;99.90;;;;;;5022395;28;20026;-73
2021/12/03 03:47:52;;;;;;;35.90;26.05;;;0.50;99.90;;;;;;5026152;28;20037;-74
2021/12/03 03:50:20;;;;;;;31.95;24.02;;;0.60;99.90;;;;;;5027457;28;20381;-74
2021/12/03 03:52:47;;;;;;;32.00;24.02;;;0.50;99.90;;;;;;5025439;28;20029;-73
2021/12/03 03:55:16;;;;;;;31.95;25.40;;;0.50;99.90;;;;;;5017218;28;20033;-72
2021/12/03 03:57:41;;;;;;;36.60;26.38;;;0.50;99.90;;;;;;5015390;28;20026;-74
2021/12/03 04:00:10;;;;;;;36.38;27.38;;;0.40;99.90;;;;;;5015361;28;20369;-73
2021/12/03 04:02:36;;;;;;;37.95;27.65;;;0.40;99.90;;;;;;5014170;28;20046;-73
2021/12/03 04:05:02;;;;;;;34.85;26.48;;;0.30;99.90;;;;;;5014947;28;20014;-72
2021/12/03 04:07:28;;;;;;;33.53;25.65;;;0.30;99.90;;;;;;5018241;28;20022;-72
2021/12/03 04:09:53;;;;;;;34.72;25.55;;;0.20;99.90;;;;;;5015146;28;20104;-72
2021/12/03 04:12:19;;;;;;;31.63;23.85;;;0.40;99.90;;;;;;5025381;28;20116;-72
2021/12/03 04:14:44;;;;;;;29.70;23.10;;;0.20;99.90;;;;;;5034712;28;20021;-72
2021/12/03 04:17:10;;;;;;;31.42;22.35;;;0.10;99.90;;;;;;5034874;28;20629;-72
2021/12/03 04:19:36;;;;;;;31.67;24.40;;;0.00;99.90;;;;;;5034640;28;20484;-72
2021/12/03 04:22:02;;;;;;;31.20;23.55;;;0.00;99.90;;;;;;5034845;28;20376;-72
2021/12/03 04:24:28;;;;;;;32.17;23.95;;;-0.10;99.90;;;;;;5029465;28;20125;-70
2021/12/03 04:26:54;;;;;;;30.85;22.83;;;-0.10;99.90;;;;;;5024048;28;20058;-70
2021/12/03 04:29:20;;;;;;;29.73;22.60;;;-0.10;99.90;;;;;;5034678;28;20029;-71
2021/12/03 04:31:46;;;;;;;32.88;23.27;;;-0.10;99.90;;;;;;5033358;28;20398;-71
2021/12/03 04:34:12;;;;;;;30.65;23.10;;;-0.10;99.90;;;;;;5034421;28;20064;-71
2021/12/03 04:36:37;;;;;;;31.42;23.23;;;-0.20;99.90;;;;;;5034533;28;20053;-73
2021/12/03 04:39:03;;;;;;;29.30;22.45;;;-0.20;99.90;;;;;;5034427;28;20029;-74
2021/12/03 04:41:29;;;;;;;31.98;24.10;;;-0.40;99.90;;;;;;5024212;28;20431;-70
2021/12/03 04:43:55;;;;;;;30.25;22.00;;;-0.40;99.90;;;;;;5027748;28;20109;-71
2021/12/03 04:46:22;;;;;;;28.50;21.15;;;-0.40;99.90;;;;;;5014782;28;20050;-70
2021/12/03 04:48:48;;;;;;;34.33;23.25;;;-0.40;99.90;;;;;;5013916;28;20506;-71
2021/12/03 04:51:14;;;;;;;35.00;23.42;;;-0.60;99.90;;;;;;5013749;28;20034;-73
2021/12/03 04:53:39;;;;;;;31.77;22.33;;;-0.80;99.90;;;;;;5013232;28;20121;-73
2021/12/03 04:56:05;;;;;;;32.03;21.73;;;-0.80;99.90;;;;;;5012753;28;20539;-73
2021/12/03 04:58:30;;;;;;;27.95;19.75;;;-0.90;99.90;;;;;;5012943;28;20030;-71
2021/12/03 05:00:57;;;;;;;24.48;18.85;;;-0.90;99.90;;;;;;5012787;28;20030;-72
2021/12/03 05:03:25;;;;;;;26.23;19.17;;;-0.90;99.90;;;;;;5012948;28;20050;-71
2021/12/03 05:05:56;;;;;;;23.95;18.05;;;-0.80;99.90;;;;;;5014015;28;20085;-71
2021/12/03 05:08:24;;;;;;;25.52;18.77;;;-0.80;99.90;;;;;;5014064;28;20022;-71
2021/12/03 05:10:49;;;;;;;23.92;18.50;;;-0.80;99.90;;;;;;5014091;28;20029;-70
2021/12/03 05:13:27;;;;;;;27.60;18.75;;;-0.80;99.90;;;;;;5012750;28;20125;-70
2021/12/03 05:15:53;;;;;;;24.88;17.65;;;-0.90;99.90;;;;;;5012549;28;20088;-70
2021/12/03 05:18:23;;;;;;;27.42;20.27;;;-0.80;99.90;;;;;;5014067;28;20030;-70
2021/12/03 05:20:51;;;;;;;24.65;19.63;;;-0.90;99.90;;;;;;5012474;28;20057;-72
2021/12/03 05:23:17;;;;;;;27.92;21.13;;;-0.70;99.90;;;;;;5013840;28;20404;-71
2021/12/03 05:25:43;;;;;;;26.70;19.63;;;-0.70;99.90;;;;;;5013610;28;20447;-71
2021/12/03 05:28:09;;;;;;;19.83;17.15;;;-0.70;99.90;;;;;;5012664;28;20029;-71
2021/12/03 05:30:35;;;;;;;21.15;17.58;;;-0.70;99.90;;;;;;5013782;28;20402;-72
2021/12/03 05:33:02;;;;;;;23.75;18.48;;;-0.60;99.90;;;;;;5013761;28;20037;-71
2021/12/03 05:35:27;;;;;;;23.33;17.98;;;-0.50;99.90;;;;;;5027159;28;20037;-72
2021/12/03 05:37:53;;;;;;;24.80;18.95;;;-0.50;99.90;;;;;;5019284;28;20049;-71
2021/12/03 05:40:20;;;;;;;25.50;19.00;;;-0.40;99.90;;;;;;5019500;28;20045;-71
2021/12/03 05:42:46;;;;;;;36.85;24.83;;;-0.50;99.90;;;;;;5013709;28;20026;-70
2021/12/03 05:45:20;;;;;;;36.78;27.05;;;-0.50;99.90;;;;;;5026589;28;20021;-71
2021/12/03 05:47:46;;;;;;;29.42;22.67;;;-0.50;99.90;;;;;;5013043;28;20025;-70
2021/12/03 05:50:13;;;;;;;39.75;29.35;;;-0.70;99.90;;;;;;5013477;28;20109;-71
2021/12/03 05:52:40;;;;;;;45.08;38.53;;;-0.80;99.90;;;;;;5011676;28;20049;-71
2021/12/03 05:55:07;;;;;;;28.25;25.02;;;-0.80;99.90;;;;;;5013404;28;20041;-70
2021/12/03 05:57:33;;;;;;;96.22;87.75;;;-0.70;99.90;;;;;;5014401;28;20495;-71
2021/12/03 05:59:59;;;;;;;27.77;22.83;;;-0.80;99.90;;;;;;5014833;28;20029;-71
2021/12/03 06:02:24;;;;;;;87.07;79.88;;;-1.00;99.90;;;;;;5023672;28;20504;-71
2021/12/03 06:04:50;;;;;;;56.55;51.30;;;-1.00;99.90;;;;;;5025976;28;20052;-71
2021/12/03 06:07:15;;;;;;;29.00;24.50;;;-1.00;99.90;;;;;;5021841;28;20550;-72
2021/12/03 06:09:42;;;;;;;24.15;19.00;;;-1.10;99.90;;;;;;5019702;28;20451;-71
2021/12/03 06:12:09;;;;;;;24.52;18.48;;;-1.10;99.90;;;;;;5032832;28;20025;-72
2021/12/03 06:14:34;;;;;;;23.70;17.13;;;-1.20;99.90;;;;;;5031268;28;20034;-72
2021/12/03 06:17:00;;;;;;;31.92;19.40;;;-1.20;99.90;;;;;;5032557;28;20436;-71
2021/12/03 06:19:25;;;;;;;26.25;18.75;;;-1.20;99.90;;;;;;5030827;28;20511;-72
2021/12/03 06:21:51;;;;;;;29.25;21.50;;;-1.20;99.90;;;;;;5020090;28;20056;-72
2021/12/03 06:24:17;;;;;;;28.88;21.75;;;-1.20;99.90;;;;;;5030601;28;20472;-72
2021/12/03 06:26:42;;;;;;;35.20;24.08;;;-1.10;99.90;;;;;;5020167;28;20116;-71
2021/12/03 06:29:08;;;;;;;35.28;23.77;;;-1.20;99.90;;;;;;5019282;28;20029;-71
2021/12/03 06:31:33;;;;;;;32.42;22.67;;;-1.20;99.90;;;;;;5023379;28;20036;-71
2021/12/03 06:34:00;;;;;;;34.35;24.33;;;-1.30;99.90;;;;;;5025661;28;20033;-71
2021/12/03 06:36:25;;;;;;;40.53;25.90;;;-1.30;99.90;;;;;;5020884;28;20056;-73
2021/12/03 06:38:51;;;;;;;35.45;25.98;;;-1.40;99.90;;;;;;5030181;28;20057;-72
2021/12/03 06:41:17;;;;;;;32.78;22.92;;;-1.30;99.90;;;;;;5011230;28;20485;-72
2021/12/03 06:43:42;;;;;;;28.08;21.92;;;-1.30;99.90;;;;;;5012463;28;20554;-72
2021/12/03 06:46:08;;;;;;;27.70;20.23;;;-1.30;99.90;;;;;;5012289;28;20376;-72
2021/12/03 06:48:33;;;;;;;30.42;21.90;;;-1.30;99.90;;;;;;5026917;28;20034;-72
2021/12/03 06:50:59;;;;;;;30.75;21.83;;;-1.30;99.90;;;;;;5029437;28;20442;-72
2021/12/03 06:53:28;;;;;;;51.08;35.83;;;-1.30;99.90;;;;;;5030771;28;20438;-72
2021/12/03 06:55:58;;;;;;;54.28;37.47;;;-1.30;99.90;;;;;;5031780;28;20120;-72
2021/12/03 06:58:24;;;;;;;49.70;35.58;;;-1.30;99.90;;;;;;5031895;28;20032;-73
2021/12/03 07:00:53;;;;;;;123.07;80.20;;;-1.30;99.90;;;;;;5030385;28;20037;-74
2021/12/03 07:03:19;;;;;;;51.00;37.60;;;-1.30;99.90;;;;;;5032057;28;20083;-72
2021/12/03 07:05:45;;;;;;;36.97;28.35;;;-1.30;99.90;;;;;;5022262;28;20022;-72
2021/12/03 07:08:12;;;;;;;49.58;36.33;;;-1.30;99.90;;;;;;5014564;28;20026;-72
2021/12/03 07:10:37;;;;;;;34.63;25.33;;;-1.30;99.90;;;;;;5020794;28;20484;-73
2021/12/03 07:13:03;;;;;;;29.83;22.80;;;-1.40;99.90;;;;;;5011292;28;20037;-72
2021/12/03 07:15:29;;;;;;;28.40;21.90;;;-1.40;99.90;;;;;;5011624;28;20037;-71
2021/12/03 07:17:54;;;;;;;27.27;21.58;;;-1.40;99.90;;;;;;5010825;28;20037;-71
2021/12/03 07:20:23;;;;;;;28.92;21.50;;;-1.50;99.90;;;;;;5021352;28;20057;-72
2021/12/03 07:22:50;;;;;;;26.42;20.83;;;-1.40;99.90;;;;;;5030718;28;20714;-72
2021/12/03 07:25:16;;;;;;;27.73;21.48;;;-1.30;99.90;;;;;;5017527;28;20037;-72
2021/12/03 07:27:42;;;;;;;30.52;22.33;;;-1.30;99.90;;;;;;5023786;28;20028;-72
2021/12/03 07:30:10;;;;;;;28.25;22.20;;;-1.30;99.90;;;;;;5013415;28;20105;-72
2021/12/03 07:32:36;;;;;;;26.83;21.23;;;-1.20;99.90;;;;;;5013241;28;20450;-72
2021/12/03 07:35:04;;;;;;;32.08;26.00;;;-1.10;99.90;;;;;;5016328;28;20108;-71
2021/12/03 07:37:29;;;;;;;34.67;28.40;;;-1.00;99.90;;;;;;5011644;28;20026;-71
2021/12/03 07:39:56;;;;;;;30.83;24.23;;;-0.80;99.90;;;;;;5011753;28;20105;-72
2021/12/03 07:42:22;;;;;;;30.20;23.95;;;-0.80;99.90;;;;;;5025048;28;20022;-72
2021/12/03 07:44:47;;;;;;;29.48;22.70;;;-0.70;99.90;;;;;;5011648;28;20029;-71
2021/12/03 07:47:13;;;;;;;31.88;24.67;;;-0.50;99.90;;;;;;5025164;28;20084;-71
2021/12/03 07:49:40;;;;;;;31.92;25.20;;;-0.50;99.90;;;;;;5021068;28;20037;-72
2021/12/03 07:52:11;;;;;;;30.98;25.63;;;-0.50;99.90;;;;;;5030243;28;20054;-72
2021/12/03 07:54:36;;;;;;;33.58;27.42;;;-0.50;99.90;;;;;;5031164;28;20060;-72
2021/12/03 07:57:02;;;;;;;32.88;26.40;;;-0.50;99.90;;;;;;5012269;28;20049;-72
2021/12/03 07:59:28;;;;;;;35.13;26.80;;;-0.50;99.90;;;;;;5011356;28;20060;-72
2021/12/03 08:01:53;;;;;;;34.42;26.85;;;-0.40;99.90;;;;;;5011613;28;20470;-72
2021/12/03 08:04:19;;;;;;;24.52;20.23;;;-0.40;99.90;;;;;;5011436;28;20543;-72
2021/12/03 08:06:46;;;;;;;22.05;18.90;;;-0.50;99.90;;;;;;5011518;28;20053;-72
2021/12/03 08:09:12;;;;;;;22.95;18.98;;;-0.60;99.90;;;;;;5011513;28;20404;-72
2021/12/03 08:11:39;;;;;;;25.15;20.00;;;-0.60;99.90;;;;;;5024690;28;20030;-73
2021/12/03 08:14:05;;;;;;;23.80;18.75;;;-0.60;99.90;;;;;;5011229;28;20026;-72
2021/12/03 08:16:31;;;;;;;24.58;19.33;;;-0.60;99.90;;;;;;5016018;28;20121;-72
2021/12/03 08:18:56;;;;;;;25.08;20.42;;;-0.60;99.90;;;;;;5018811;28;20459;-72
2021/12/03 08:21:22;;;;;;;25.20;19.00;;;-0.50;99.90;;;;;;5023208;28;20026;-72
2021/12/03 08:23:48;;;;;;;19.85;16.88;;;-0.50;99.90;;;;;;5012132;28;20080;-72
2021/12/03 08:26:15;;;;;;;21.13;18.70;;;-0.50;99.90;;;;;;5014905;28;20105;-72
2021/12/03 08:28:40;;;;;;;20.08;17.90;;;-0.50;99.90;;;;;;5013595;28;20041;-72
2021/12/03 08:31:07;;;;;;;20.23;17.23;;;-0.40;99.90;;;;;;5014810;28;20026;-72
2021/12/03 08:33:33;;;;;;;21.75;19.45;;;-0.30;99.90;;;;;;5013639;28;20112;-71
2021/12/03 08:35:58;;;;;;;19.45;17.00;;;-0.20;99.90;;;;;;5014540;28;20105;-72
2021/12/03 08:38:24;;;;;;;18.33;16.30;;;-0.20;99.90;;;;;;5026051;28;20464;-72
2021/12/03 08:40:49;;;;;;;19.73;16.45;;;-0.30;99.90;;;;;;5016046;28;20026;-72
2021/12/03 08:43:15;;;;;;;20.73;17.05;;;-0.30;99.90;;;;;;5025016;28;20025;-72
2021/12/03 08:45:40;;;;;;;19.92;17.75;;;-0.20;99.90;;;;;;5034183;28;20369;-72
2021/12/03 08:48:07;;;;;;;21.50;18.50;;;-0.20;99.90;;;;;;5025972;28;20084;-72
2021/12/03 08:50:47;;;;;;;21.63;19.15;;;-0.10;99.90;;;;;;5016172;28;20022;-72
2021/12/03 08:54:48;;;;;;;22.27;18.58;;;-0.10;99.90;;;;;;5014610;28;20443;-72
2021/12/03 08:56:13;;;;;;;22.08;19.67;;;-0.10;99.90;;;;;;5025224;28;20030;-72
2021/12/03 08:58:39;;;;;;;23.90;19.35;;;-0.10;99.90;;;;;;5016637;28;20113;-73
2021/12/03 09:01:07;;;;;;;24.08;20.55;;;0.00;99.90;;;;;;5013017;28;20104;-73
2021/12/03 09:03:33;;;;;;;22.90;20.38;;;0.00;99.90;;;;;;5013420;28;20395;-72
2021/12/03 09:05:59;;;;;;;25.55;21.17;;;0.00;99.90;;;;;;5014181;28;20040;-72
2021/12/03 09:08:24;;;;;;;25.90;21.67;;;0.10;99.90;;;;;;5014293;28;20369;-72
2021/12/03 09:10:50;;;;;;;23.98;21.27;;;0.10;99.90;;;;;;5012929;28;20538;-72
2021/12/03 09:13:16;;;;;;;27.45;23.27;;;0.20;99.90;;;;;;5013030;28;20025;-72
2021/12/03 09:15:48;;;;;;;23.17;20.67;;;0.20;99.90;;;;;;5013914;28;20057;-72
2021/12/03 09:18:30;;;;;;;22.15;19.70;;;0.20;99.90;;;;;;5013864;28;20028;-72
2021/12/03 09:23:47;;;;;;;20.48;18.27;;;0.10;99.90;;;;;;5014245;28;20061;-72
2021/12/03 09:26:15;;;;;;;20.45;18.35;;;0.20;99.90;;;;;;5013588;28;20030;-72
2021/12/03 09:28:45;;;;;;;20.75;18.65;;;0.30;99.90;;;;;;5013876;28;20029;-72
2021/12/03 09:31:12;;;;;;;23.27;20.83;;;0.30;99.90;;;;;;5012353;28;20495;-72
2021/12/03 09:33:40;;;;;;;24.83;21.90;;;0.50;99.90;;;;;;5014018;28;20068;-72
2021/12/03 09:36:08;;;;;;;27.48;23.45;;;0.60;99.90;;;;;;5012741;28;20022;-72
2021/12/03 09:38:35;;;;;;;23.23;19.83;;;0.50;99.90;;;;;;5025446;28;20025;-72
2021/12/03 09:41:09;;;;;;;25.00;20.48;;;0.50;99.90;;;;;;5000128;28;20076;-72
2021/12/03 09:43:46;;;;;;;25.85;22.83;;;0.50;99.90;;;;;;5012550;28;20037;-72
2021/12/03 09:51:16;;;;;;;29.95;24.95;;;0.50;99.90;;;;;;5019015;28;20109;-72
2021/12/03 09:56:28;;;;;;;23.52;20.17;;;0.60;99.90;;;;;;5012604;28;20511;-73
2021/12/03 10:04:27;;;;;;;23.38;20.00;;;0.70;99.90;;;;;;5013145;28;20022;-73
2021/12/03 10:15:20;;;;;;;20.75;18.65;;;0.60;99.90;;;;;;5032610;28;20455;-73
2021/12/03 10:18:16;;;;;;;21.35;18.60;;;0.70;99.90;;;;;;5017152;28;20026;-73
2021/12/03 10:20:51;;;;;;;23.40;19.80;;;0.80;99.90;;;;;;5012819;28;20110;-73
2021/12/03 10:32:22;;;;;;;47.95;33.92;;;1.00;99.90;;;;;;5012763;28;20033;-73
2021/12/03 10:43:44;;;;;;;23.50;20.05;;;0.80;99.90;;;;;;5012729;28;20030;-72
2021/12/03 10:57:34;;;;;;;21.90;18.88;;;0.90;99.90;;;;;;5032109;28;20030;-72
2021/12/03 11:28:41;;;;;;;18.45;16.45;;;1.00;99.90;;;;;;5009992;28;20087;-72
2021/12/03 11:31:26;;;;;;;21.65;18.02;;;1.00;99.90;;;;;;5011478;28;20549;-72
2021/12/03 11:45:18;;;;;;;;;;;0.90;99.90;;;;;;5009358;28;20033;-72
2021/12/03 11:59:30;;;;;;;15.07;13.45;;;0.70;99.90;;;;;;5022161;28;20727;-72
2021/12/03 13:11:12;;;;;;;8.10;7.18;;;0.50;99.90;;;;;;5001655;28;20694;-72
2021/12/03 13:21:52;;;;;;;9.95;8.57;;;0.40;99.90;;;;;;5018811;28;20053;-72
2021/12/03 13:27:39;;;;;;;8.82;7.93;;;0.30;99.90;;;;;;5014006;28;20029;-72
2021/12/03 13:31:22;;;;;;;10.63;8.80;;;0.30;99.90;;;;;;5013629;28;20034;-71
2021/12/03 14:12:15;;;;;;;10.55;7.90;;;0.50;99.90;;;;;;5016282;28;20739;-72
2021/12/03 14:36:49;;;;;;;9.82;8.43;;;0.40;99.90;;;;;;5027110;28;20021;-71
2021/12/03 14:39:57;;;;;;;9.52;7.60;;;0.40;99.90;;;;;;5019222;28;20028;-71
2021/12/03 14:45:11;;;;;;;10.38;7.90;;;0.40;99.90;;;;;;5027362;28;20028;-71
2021/12/03 14:48:09;;;;;;;13.05;8.27;;;0.40;99.90;;;;;;5019423;28;20105;-71
2021/12/03 14:55:51;;;;;;;9.85;8.25;;;0.40;99.90;;;;;;5025257;28;20510;-71
2021/12/03 14:58:23;;;;;;;13.80;8.32;;;0.40;99.90;;;;;;5024559;28;20361;-71
2021/12/03 15:00:56;;;;;;;9.13;8.13;;;0.50;99.90;;;;;;5020784;28;20030;-72
2021/12/03 15:03:35;;;;;;;12.63;10.80;;;0.50;99.90;;;;;;5022646;28;20010;-72
2021/12/03 15:11:41;;;;;;;44.92;30.70;;;0.60;99.90;;;;;;5013848;28;20030;-72
2021/12/03 15:14:38;;;;;;;25.65;18.38;;;0.50;99.90;;;;;;5022081;28;20391;-71
2021/12/03 15:27:39;;;;;;;16.52;11.85;;;0.40;99.90;;;;;;5017283;28;20268;-71
2021/12/03 15:30:25;;;;;;;19.23;13.88;;;0.40;99.90;;;;;;5022976;28;20045;-71
2021/12/03 15:32:57;;;;;;;14.40;11.38;;;0.50;99.90;;;;;;5020655;28;20061;-72
2021/12/03 15:35:31;;;;;;;14.75;10.68;;;0.40;99.90;;;;;;5022049;28;20033;-71
2021/12/03 15:55:08;;;;;;;11.07;8.48;;;0.50;99.90;;;;;;5022789;28;20499;-72
2021/12/03 16:04:34;;;;;;;19.98;15.02;;;0.50;99.90;;;;;;5022274;28;20021;-71
2021/12/03 16:15:07;;;;;;;14.88;9.98;;;0.50;99.90;;;;;;5023130;28;20025;-72
2021/12/03 16:20:33;;;;;;;16.77;13.57;;;0.50;99.90;;;;;;5015549;28;20020;-70
2021/12/03 16:44:59;;;;;;;14.25;11.10;;;0.30;99.90;;;;;;5026940;28;20080;-71
2021/12/03 16:50:47;;;;;;;11.40;10.15;;;0.30;99.90;;;;;;5017423;28;20037;-71
2021/12/03 16:53:16;;;;;;;12.05;10.70;;;0.30;99.90;;;;;;5012659;28;20055;-71
2021/12/03 16:55:53;;;;;;;11.35;9.95;;;0.30;99.90;;;;;;5016535;28;20026;-70
2021/12/03 16:58:19;;;;;;;12.88;10.18;;;0.20;99.90;;;;;;5013507;28;20022;-71
2021/12/03 17:00:55;;;;;;;12.45;9.80;;;0.30;99.90;;;;;;5013334;28;20060;-71
2021/12/03 17:03:28;;;;;;;13.13;9.73;;;0.20;99.90;;;;;;5011661;28;20099;-71
2021/12/03 17:11:45;;;;;;;14.55;12.82;;;0.20;99.90;;;;;;5008847;28;20447;-71
2021/12/03 17:30:49;;;;;;;13.68;12.07;;;0.20;99.90;;;;;;5013893;28;20018;-73
2021/12/03 17:44:39;;;;;;;12.70;11.05;;;0.10;99.90;;;;;;5013249;28;20642;-73
2021/12/03 17:53:04;;;;;;;20.70;15.18;;;0.00;99.90;;;;;;5026057;28;20083;-73
2021/12/03 17:56:01;;;;;;;15.90;13.25;;;0.00;99.90;;;;;;5012850;28;20021;-72
2021/12/03 17:58:25;;;;;;;;;;;0.00;99.90;;;;;;5017483;28;20022;-73
2021/12/03 18:01:09;;;;;;;16.88;13.18;;;0.00;99.90;;;;;;5029173;28;19921;-73
2021/12/03 18:04:23;;;;;;;19.75;14.85;;;0.00;99.90;;;;;;5020887;28;20022;-72
2021/12/03 18:09:06;;;;;;;22.48;16.80;;;0.10;99.90;;;;;;5023856;28;20030;-73
2021/12/03 18:43:19;;;;;;;11.70;10.50;;;0.00;99.90;;;;;;5013665;28;20025;-72
2021/12/03 18:43:31;;;;;;;14.75;11.93;;;0.00;99.90;;;;;;5023279;28;20018;-72
2021/12/03 18:45:20;;;;;;;16.05;13.32;;;-0.20;99.90;;;;;;5024947;28;20036;-72
2021/12/03 18:55:00;;;;;;;14.40;10.98;;;-0.20;99.90;;;;;;5025581;28;20036;-73
2021/12/03 18:57:29;;;;;;;12.18;9.80;;;-0.10;99.90;;;;;;5026161;28;20021;-73
2021/12/03 18:59:59;;;;;;;12.65;10.68;;;-0.10;99.90;;;;;;5020568;28;20076;-73
2021/12/03 19:02:25;;;;;;;14.68;11.25;;;-0.10;99.90;;;;;;5024784;28;20041;-73
2021/12/03 19:04:57;;;;;;;12.85;10.00;;;-0.10;99.90;;;;;;5021464;28;20551;-72
2021/12/03 19:07:29;;;;;;;12.70;11.40;;;-0.10;99.90;;;;;;5023565;28;20031;-73
2021/12/03 19:09:58;;;;;;;16.98;11.85;;;-0.10;99.90;;;;;;5021340;28;20543;-73
2021/12/03 19:12:26;;;;;;;12.13;10.90;;;-0.10;99.90;;;;;;5027923;28;20025;-73
2021/12/03 19:14:56;;;;;;;12.20;10.88;;;-0.10;99.90;;;;;;5021723;28;20022;-72
2021/12/03 19:17:23;;;;;;;15.77;11.00;;;-0.10;99.90;;;;;;5023551;28;20075;-73
2021/12/03 19:19:52;;;;;;;12.27;11.07;;;-0.10;99.90;;;;;;5023180;28;20026;-73
2021/12/03 19:22:19;;;;;;;12.35;10.25;;;-0.10;99.90;;;;;;5022324;28;20067;-72
2021/12/03 19:24:44;;;;;;;13.68;10.75;;;-0.10;99.90;;;;;;5022055;28;20022;-72
2021/12/03 19:27:11;;;;;;;12.02;10.57;;;-0.10;99.90;;;;;;5022409;28;20025;-73